createdAt,value
2018-04-10T00:00:24.126Z,24.13
2018-04-10T00:02:53.321Z,26.50
2018-04-10T00:05:22.432Z,23.50
2018-04-10T00:07:51.829Z,24.13
2018-04-10T00:10:21.177Z,23.67
2018-04-10T00:12:50.097Z,24.50
2018-04-10T00:15:19.505Z,25.27
2018-04-10T00:17:48.601Z,22.40
2018-04-10T00:20:18.615Z,23.43
2018-04-10T00:22:47.780Z,23.33
2018-04-10T00:25:16.993Z,23.20
2018-04-10T00:27:46.085Z,23.73
2018-04-10T00:30:16.308Z,24.80
2018-04-10T00:32:45.434Z,22.13
2018-04-10T00:35:14.953Z,23.90
2018-04-10T00:37:43.846Z,23.23
2018-04-10T00:40:12.929Z,21.70
2018-04-10T00:42:41.934Z,23.83
2018-04-10T00:45:11.101Z,27.57
2018-04-10T00:47:41.013Z,24.37
2018-04-10T00:50:11.329Z,24.43
2018-04-10T00:52:40.461Z,23.73
2018-04-10T00:55:10.406Z,22.07
2018-04-10T00:57:39.708Z,26.47
2018-04-10T01:00:09.076Z,24.10
2018-04-10T01:02:38.276Z,24.00
2018-04-10T01:05:08.573Z,23.67
2018-04-10T01:07:37.702Z,23.03
2018-04-10T01:10:07.080Z,23.40
2018-04-10T01:12:36.109Z,23.57
2018-04-10T01:15:06.121Z,21.20
2018-04-10T01:17:35.496Z,22.33
2018-04-10T01:20:05.745Z,23.67
2018-04-10T01:22:34.875Z,21.77
2018-04-10T01:25:04.117Z,25.83
2018-04-10T01:27:33.349Z,23.53
2018-04-10T01:30:02.398Z,24.80
2018-04-10T01:32:31.660Z,24.13
2018-04-10T01:35:01.177Z,22.53
2018-04-10T01:37:30.316Z,23.67
2018-04-10T01:39:59.720Z,24.00
2018-04-10T01:42:28.821Z,25.13
2018-04-10T01:44:58.053Z,26.23
2018-04-10T01:47:27.210Z,24.60
2018-04-10T01:49:56.113Z,24.57
2018-04-10T01:52:25.241Z,25.10
2018-04-10T01:54:54.369Z,26.20
2018-04-10T01:57:23.553Z,23.83
2018-04-10T01:59:53.109Z,26.00
2018-04-10T02:02:22.132Z,24.40
2018-04-10T02:04:51.404Z,26.20
2018-04-10T02:07:20.519Z,26.00
2018-04-10T02:12:48.015Z,25.83
2018-04-10T02:15:17.139Z,27.37
2018-04-10T02:17:46.138Z,26.97
2018-04-10T02:20:15.195Z,25.50
2018-04-10T02:22:44.194Z,23.83
2018-04-10T02:25:13.360Z,25.57
2018-04-10T02:27:43.203Z,22.33
2018-04-10T02:30:12.441Z,22.50
2018-04-10T02:32:42.572Z,22.63
2018-04-10T02:35:12.571Z,22.37
2018-04-10T02:37:47.198Z,24.30
2018-04-10T02:43:03.263Z,25.00
2018-04-10T02:45:56.465Z,22.47
2018-04-10T02:48:25.613Z,23.63
2018-04-10T02:50:54.768Z,24.43
2018-04-10T02:53:24.761Z,23.83
2018-04-10T02:55:53.958Z,25.37
2018-04-10T02:58:22.858Z,23.60
2018-04-10T03:00:52.020Z,20.83
2018-04-10T03:03:21.150Z,24.63
2018-04-10T03:05:50.365Z,23.30
2018-04-10T03:08:19.343Z,23.53
2018-04-10T03:10:48.513Z,22.37
2018-04-10T03:13:17.473Z,25.07
2018-04-10T03:15:46.563Z,23.57
2018-04-10T03:18:17.058Z,23.00
2018-04-10T03:20:46.245Z,20.43
2018-04-10T03:23:15.207Z,22.30
2018-04-10T03:25:44.327Z,23.60
2018-04-10T03:28:13.307Z,20.10
2018-04-10T03:30:43.340Z,24.13
2018-04-10T03:33:12.530Z,21.20
2018-04-10T03:35:41.767Z,23.17
2018-04-10T03:38:10.767Z,22.30
2018-04-10T03:40:39.958Z,22.60
2018-04-10T03:43:08.955Z,25.50
2018-04-10T03:45:38.085Z,22.93
2018-04-10T03:48:07.043Z,22.97
2018-04-10T03:50:36.179Z,23.00
2018-04-10T03:53:05.135Z,20.50
2018-04-10T03:55:34.269Z,24.23
2018-04-10T03:58:03.206Z,26.37
2018-04-10T04:00:32.215Z,21.80
2018-04-10T04:03:01.310Z,22.70
2018-04-10T04:05:31.525Z,24.40
2018-04-10T04:08:01.542Z,22.13
2018-04-10T04:10:31.363Z,21.03
2018-04-10T04:13:00.233Z,19.70
2018-04-10T04:15:29.410Z,19.77
2018-04-10T04:17:58.523Z,22.30
2018-04-10T04:20:39.508Z,20.93
2018-04-10T04:23:08.453Z,20.83
2018-04-10T04:25:38.433Z,19.47
2018-04-10T04:28:07.554Z,22.37
2018-04-10T04:30:36.929Z,21.63
2018-04-10T04:33:06.842Z,20.80
2018-04-10T04:35:36.861Z,20.60
2018-04-10T04:38:06.149Z,22.60
2018-04-10T04:40:35.598Z,21.43
2018-04-10T04:43:05.112Z,20.93
2018-04-10T04:45:34.451Z,23.00
2018-04-10T04:48:03.474Z,22.10
2018-04-10T04:50:33.606Z,20.67
2018-04-10T04:53:03.715Z,21.13
2018-04-10T04:55:33.602Z,21.73
2018-04-10T04:58:02.620Z,18.50
2018-04-10T05:00:31.912Z,20.93
2018-04-10T05:03:01.332Z,20.47
2018-04-10T05:05:31.305Z,21.50
2018-04-10T05:08:00.541Z,19.90
2018-04-10T05:10:29.989Z,19.90
2018-04-10T05:13:00.248Z,23.97
2018-04-10T05:15:29.690Z,21.40
2018-04-10T05:17:58.789Z,22.93
2018-04-10T05:20:28.085Z,23.70
2018-04-10T05:22:57.301Z,22.67
2018-04-10T05:25:26.486Z,24.43
2018-04-10T05:27:55.771Z,25.23
2018-04-10T05:30:25.218Z,21.43
2018-04-10T05:32:54.735Z,22.80
2018-04-10T05:35:24.014Z,23.10
2018-04-10T05:37:52.924Z,23.00
2018-04-10T05:40:22.262Z,23.70
2018-04-10T05:42:51.550Z,23.43
2018-04-10T05:45:20.927Z,21.83
2018-04-10T05:47:51.008Z,19.70
2018-04-10T05:50:20.444Z,21.10
2018-04-10T05:52:49.468Z,22.17
2018-04-10T05:55:18.851Z,23.00
2018-04-10T05:57:47.959Z,20.03
2018-04-10T06:00:17.314Z,22.00
2018-04-10T06:02:47.911Z,20.73
2018-04-10T06:05:17.094Z,19.67
2018-04-10T06:07:46.619Z,19.00
2018-04-10T06:10:15.994Z,16.63
2018-04-10T06:12:45.270Z,16.20
2018-04-10T06:15:14.537Z,16.30
2018-04-10T06:17:43.659Z,15.83
2018-04-10T06:20:12.762Z,15.35
2018-04-10T06:22:42.607Z,15.73
2018-04-10T06:25:11.877Z,13.82
2018-04-10T06:27:41.010Z,14.60
2018-04-10T06:30:11.123Z,14.73
2018-04-10T06:32:41.206Z,14.30
2018-04-10T06:35:10.646Z,17.83
2018-04-10T06:37:39.823Z,16.73
2018-04-10T06:40:09.063Z,16.47
2018-04-10T06:42:38.261Z,15.93
2018-04-10T06:45:07.193Z,16.87
2018-04-10T06:47:36.310Z,13.50
2018-04-10T06:50:06.529Z,15.17
2018-04-10T06:52:36.582Z,14.07
2018-04-10T06:55:06.067Z,15.50
2018-04-10T06:57:35.199Z,16.43
2018-04-10T07:00:05.694Z,15.37
2018-04-10T07:02:34.718Z,15.60
2018-04-10T07:05:04.081Z,16.23
2018-04-10T07:07:34.005Z,13.00
2018-04-10T07:10:04.127Z,14.60
2018-04-10T07:12:33.317Z,14.40
2018-04-10T07:15:02.726Z,15.70
2018-04-10T07:17:32.801Z,13.77
2018-04-10T07:20:02.075Z,14.27
2018-04-10T07:22:31.246Z,15.03
2018-04-10T07:25:00.709Z,15.43
2018-04-10T07:27:29.729Z,14.30
2018-04-10T07:29:58.950Z,14.30
2018-04-10T07:32:28.966Z,14.63
2018-04-10T07:34:58.306Z,13.60
2018-04-10T07:37:27.400Z,16.17
2018-04-10T07:39:57.586Z,14.47
2018-04-10T07:42:26.714Z,15.30
2018-04-10T07:44:55.993Z,16.17
2018-04-10T07:47:25.039Z,14.43
2018-04-10T07:49:54.103Z,15.30
2018-04-10T07:52:23.022Z,14.80
2018-04-10T07:54:52.375Z,16.10
2018-04-10T07:57:22.081Z,16.67
2018-04-10T07:59:52.303Z,15.93
2018-04-10T08:02:22.118Z,14.23
2018-04-10T08:04:51.350Z,16.60
2018-04-10T08:07:20.786Z,15.50
2018-04-10T08:09:50.133Z,17.00
2018-04-10T08:12:20.202Z,16.90
2018-04-10T08:14:49.620Z,16.27
2018-04-10T08:17:18.853Z,15.70
2018-04-10T08:19:49.070Z,16.00
2018-04-10T08:22:18.421Z,15.23
2018-04-10T08:24:47.713Z,15.00
2018-04-10T08:27:17.821Z,17.73
2018-04-10T08:29:47.774Z,14.40
2018-04-10T08:32:17.115Z,16.33
2018-04-10T08:34:46.630Z,16.63
2018-04-10T08:37:16.759Z,16.80
2018-04-10T08:39:46.566Z,18.27
2018-04-10T08:42:16.607Z,15.40
2018-04-10T08:44:45.919Z,18.37
2018-04-10T08:47:14.910Z,16.83
2018-04-10T08:49:44.073Z,16.60
2018-04-10T08:52:14.025Z,17.20
2018-04-10T08:54:43.292Z,16.23
2018-04-10T08:57:12.455Z,15.93
2018-04-10T08:59:41.636Z,15.93
2018-04-10T09:02:10.896Z,16.63
2018-04-10T09:04:40.418Z,14.83
2018-04-10T09:07:09.698Z,17.87
2018-04-10T09:09:39.000Z,17.20
2018-04-10T09:12:08.085Z,15.90
2018-04-10T09:14:37.085Z,16.80
2018-04-10T09:17:06.182Z,19.23
2018-04-10T09:19:36.107Z,15.60
2018-04-10T09:22:06.193Z,16.73
2018-04-10T09:24:35.450Z,15.30
2018-04-10T09:27:04.632Z,16.27
2018-04-10T09:29:34.964Z,17.40
2018-04-10T09:32:04.254Z,17.20
2018-04-10T09:34:34.503Z,17.60
2018-04-10T09:37:03.779Z,16.40
2018-04-10T09:39:33.153Z,18.10
2018-04-10T09:42:02.257Z,15.63
2018-04-10T09:44:31.437Z,17.20
2018-04-10T09:47:00.844Z,19.10
2018-04-10T09:49:30.278Z,17.30
2018-04-10T09:52:00.145Z,18.50
2018-04-10T09:54:29.169Z,18.50
2018-04-10T09:56:58.554Z,17.20
2018-04-10T09:59:28.006Z,17.50
2018-04-10T10:01:57.766Z,20.83
2018-04-10T10:04:27.218Z,18.70
2018-04-10T10:06:56.472Z,20.37
2018-04-10T10:09:25.865Z,18.67
2018-04-10T10:11:55.976Z,20.00
2018-04-10T10:14:25.458Z,19.10
2018-04-10T10:16:54.580Z,18.50
2018-04-10T10:19:23.949Z,18.70
2018-04-10T10:21:54.007Z,17.50
2018-04-10T10:24:23.378Z,17.43
2018-04-10T10:26:52.643Z,18.90
2018-04-10T10:29:21.887Z,20.17
2018-04-10T10:31:50.904Z,18.67
2018-04-10T10:34:21.094Z,18.43
2018-04-10T10:36:50.326Z,18.60
2018-04-10T10:39:19.608Z,18.57
2018-04-10T10:41:48.587Z,18.80
2018-04-10T10:44:18.610Z,19.07
2018-04-10T10:46:48.727Z,20.30
2018-04-10T10:49:18.621Z,20.10
2018-04-10T10:51:47.738Z,19.70
2018-04-10T10:54:17.202Z,22.30
2018-04-10T10:56:46.479Z,19.27
2018-04-10T10:59:15.858Z,19.13
2018-04-10T11:01:45.926Z,18.33
2018-04-10T11:04:15.273Z,20.20
2018-04-10T11:06:44.485Z,20.70
2018-04-10T11:09:13.574Z,19.50
2018-04-10T11:11:42.774Z,21.03
2018-04-10T11:14:12.914Z,20.23
2018-04-10T11:16:42.144Z,20.77
2018-04-10T11:19:11.298Z,22.37
2018-04-10T11:21:40.525Z,19.97
2018-04-10T11:24:09.757Z,19.50
2018-04-10T11:26:38.777Z,20.80
2018-04-10T11:29:08.905Z,19.57
2018-04-10T11:31:38.046Z,21.20
2018-04-10T11:34:07.138Z,20.27
2018-04-10T11:36:37.032Z,19.73
2018-04-10T11:39:07.245Z,19.10
2018-04-10T11:41:36.697Z,20.80
2018-04-10T11:44:06.155Z,21.97
2018-04-10T11:46:36.184Z,20.40
2018-04-10T11:49:06.227Z,21.00
2018-04-10T11:51:35.370Z,20.23
2018-04-10T11:54:04.824Z,19.63
2018-04-10T11:56:33.837Z,16.53
2018-04-10T11:59:03.856Z,18.90
2018-04-10T12:01:33.089Z,20.80
2018-04-10T12:04:02.539Z,18.60
2018-04-10T12:06:31.637Z,21.20
2018-04-10T12:09:01.392Z,22.80
2018-04-10T12:11:31.413Z,19.43
2018-04-10T12:14:00.875Z,20.33
2018-04-10T12:16:30.804Z,19.73
2018-04-10T12:19:00.276Z,18.77
2018-04-10T12:21:29.392Z,18.93
2018-04-10T12:23:58.684Z,18.30
2018-04-10T12:26:27.664Z,19.70
2018-04-10T12:28:56.873Z,19.87
2018-04-10T12:31:26.841Z,17.40
2018-04-10T12:33:56.142Z,16.80
2018-04-10T12:36:26.248Z,15.57
2018-04-10T12:38:55.502Z,15.07
2018-04-10T12:41:24.624Z,14.50
2018-04-10T12:43:54.035Z,15.50
2018-04-10T12:46:23.293Z,16.30
2018-04-10T12:48:52.735Z,13.93
2018-04-10T12:51:21.935Z,15.77
2018-04-10T12:53:51.245Z,14.63
2018-04-10T12:56:20.441Z,16.70
2018-04-10T12:58:49.540Z,15.37
2018-04-10T13:01:19.416Z,16.87
2018-04-10T13:03:48.727Z,14.20
2018-04-10T13:06:18.618Z,15.80
2018-04-10T13:08:47.799Z,15.70
2018-04-10T13:11:17.033Z,16.43
2018-04-10T13:13:46.376Z,14.33
2018-04-10T13:16:16.932Z,13.10
2018-04-10T13:18:47.218Z,16.03
2018-04-10T13:21:16.599Z,14.73
2018-04-10T13:23:46.819Z,16.67
2018-04-10T13:26:16.526Z,15.63
2018-04-10T13:28:45.839Z,17.20
2018-04-10T13:31:15.191Z,14.93
2018-04-10T13:33:44.570Z,16.63
2018-04-10T13:36:13.646Z,13.60
2018-04-10T13:38:42.942Z,14.50
2018-04-10T13:41:12.104Z,13.47
2018-04-10T13:43:41.419Z,14.73
2018-04-10T13:46:10.507Z,15.50
2018-04-10T13:48:39.750Z,15.40
2018-04-10T13:51:09.793Z,15.53
2018-04-10T13:53:39.226Z,15.10
2018-04-10T13:56:08.306Z,16.13
2018-04-10T13:58:37.362Z,16.07
2018-04-10T14:01:06.736Z,13.20
2018-04-10T14:03:36.259Z,16.30
2018-04-10T14:06:06.070Z,15.73
2018-04-10T14:08:36.354Z,16.27
2018-04-10T14:11:05.443Z,15.53
2018-04-10T14:13:35.549Z,15.50
2018-04-10T14:16:05.517Z,15.83
2018-04-10T14:18:34.966Z,16.10
2018-04-10T14:21:04.747Z,17.43
2018-04-10T14:23:34.873Z,16.30
2018-04-10T14:26:04.846Z,14.90
2018-04-10T14:28:34.000Z,15.77
2018-04-10T14:31:03.997Z,16.20
2018-04-10T14:33:34.230Z,15.30
2018-04-10T14:36:04.074Z,14.20
2018-04-10T14:38:33.473Z,16.23
2018-04-10T14:41:04.958Z,19.53
2018-04-10T14:43:34.414Z,17.33
2018-04-10T14:46:04.384Z,17.30
2018-04-10T14:48:33.676Z,19.17
2018-04-10T14:51:02.826Z,16.73
2018-04-10T14:53:33.187Z,15.83
2018-04-10T14:56:02.592Z,16.97
2018-04-10T14:58:31.890Z,17.87
2018-04-10T15:01:01.901Z,17.77
2018-04-10T15:03:31.178Z,16.60
2018-04-10T15:06:00.409Z,18.00
2018-04-10T15:08:29.438Z,19.40
2018-04-10T15:10:58.644Z,18.00
2018-04-10T15:13:27.698Z,18.00
2018-04-10T15:15:57.607Z,20.33
2018-04-10T15:18:27.037Z,17.07
2018-04-10T15:20:56.120Z,16.97
2018-04-10T15:23:25.262Z,19.90
2018-04-10T15:25:54.526Z,18.00
2018-04-10T15:28:23.875Z,17.03
2018-04-10T15:30:52.991Z,18.67
2018-04-10T15:33:22.242Z,18.70
2018-04-10T15:35:51.471Z,18.60
2018-04-10T15:38:20.814Z,16.47
2018-04-10T15:40:49.990Z,19.90
2018-04-10T15:43:20.058Z,20.07
2018-04-10T15:45:49.201Z,19.27
2018-04-10T15:48:18.814Z,18.37
2018-04-10T15:50:48.827Z,19.20
2018-04-10T15:53:18.722Z,20.63
2018-04-10T15:55:47.898Z,18.40
2018-04-10T15:58:17.243Z,19.40
2018-04-10T16:00:46.578Z,20.30
2018-04-10T16:03:15.983Z,20.30
2018-04-10T16:05:44.975Z,19.10
2018-04-10T16:08:14.309Z,18.37
2018-04-10T16:10:43.498Z,17.60
2018-04-10T16:13:13.371Z,19.67
2018-04-10T16:15:43.443Z,17.47
2018-04-10T16:18:12.895Z,17.93
2018-04-10T16:20:42.896Z,16.93
2018-04-10T16:23:12.106Z,16.80
2018-04-10T16:25:41.891Z,17.00
2018-04-10T16:28:11.022Z,17.47
2018-04-10T16:30:40.063Z,17.70
2018-04-10T16:33:09.220Z,18.00
2018-04-10T16:35:39.130Z,18.17
2018-04-10T16:38:08.434Z,18.50
2018-04-10T16:40:38.479Z,18.97
2018-04-10T16:43:07.950Z,17.80
2018-04-10T16:45:37.971Z,18.90
2018-04-10T16:48:07.931Z,20.03
2018-04-10T16:50:37.173Z,18.10
2018-04-10T16:53:06.626Z,19.33
2018-04-10T16:55:35.902Z,18.67
2018-04-10T16:58:06.149Z,17.80
2018-04-10T17:00:35.327Z,20.50
2018-04-10T17:03:05.099Z,18.57
2018-04-10T17:05:41.923Z,17.67
2018-04-10T17:08:24.635Z,17.50
2018-04-10T17:10:56.174Z,19.70
2018-04-10T17:13:29.718Z,18.00
2018-04-10T17:15:59.682Z,18.83
2018-04-10T17:18:35.169Z,18.30
2018-04-10T17:21:05.343Z,18.87
2018-04-10T17:23:34.982Z,19.13
2018-04-10T17:26:04.158Z,20.10
2018-04-10T17:28:36.540Z,19.87
2018-04-10T17:31:06.562Z,18.03
2018-04-10T17:33:38.927Z,17.73
2018-04-10T17:36:09.162Z,19.00
2018-04-10T17:38:38.683Z,19.27
2018-04-10T17:41:15.203Z,18.90
2018-04-10T17:43:44.742Z,18.70
2018-04-10T17:46:14.797Z,16.30
2018-04-10T17:48:44.075Z,16.20
2018-04-10T17:51:14.188Z,16.80
2018-04-10T17:53:44.172Z,16.30
2018-04-10T17:56:14.131Z,17.27
2018-04-10T17:58:44.382Z,17.00
2018-04-10T18:01:13.376Z,17.20
2018-04-10T18:03:43.157Z,17.67
2018-04-10T18:06:12.622Z,17.70
2018-04-10T18:08:41.786Z,16.57
2018-04-10T18:11:10.991Z,17.60
2018-04-10T18:13:41.150Z,15.70
2018-04-10T18:16:10.273Z,17.70
2018-04-10T18:18:39.383Z,15.83
2018-04-10T18:21:08.642Z,15.20
2018-04-10T18:23:37.743Z,16.50
2018-04-10T18:26:07.060Z,17.90
2018-04-10T18:28:36.595Z,16.60
2018-04-10T18:31:06.663Z,17.13
2018-04-10T18:33:36.219Z,16.73
2018-04-10T18:36:06.295Z,18.30
2018-04-10T18:38:35.636Z,16.37
2018-04-10T18:41:04.867Z,15.60
2018-04-10T18:43:34.179Z,16.60
2018-04-10T18:46:03.170Z,17.07
2018-04-10T18:48:33.363Z,19.10
2018-04-10T18:51:02.659Z,17.37
2018-04-10T18:53:32.775Z,20.53
2018-04-10T18:56:02.606Z,17.17
2018-04-10T18:58:31.619Z,19.50
2018-04-10T19:01:01.715Z,21.67
2018-04-10T19:03:31.037Z,17.40
2018-04-10T19:06:01.053Z,18.10
2018-04-10T19:08:31.305Z,20.60
2018-04-10T19:11:00.658Z,19.80
2018-04-10T19:13:30.974Z,17.83
2018-04-10T19:16:00.222Z,18.87
2018-04-10T19:18:29.486Z,19.33
2018-04-10T19:20:58.610Z,18.47
2018-04-10T19:23:27.846Z,18.87
2018-04-10T19:25:57.162Z,18.77
2018-04-10T19:28:26.615Z,18.67
2018-04-10T19:30:55.826Z,19.17
2018-04-10T19:33:24.986Z,19.87
2018-04-10T19:35:54.174Z,18.50
2018-04-10T19:38:23.247Z,17.47
2018-04-10T19:40:52.426Z,18.33
2018-04-10T19:43:21.583Z,18.10
2018-04-10T19:45:50.935Z,19.33
2018-04-10T19:48:20.355Z,18.30
2018-04-10T19:50:49.406Z,18.40
2018-04-10T19:53:18.917Z,18.27
2018-04-10T19:55:48.798Z,19.43
2018-04-10T19:58:18.790Z,18.53
2018-04-10T20:00:47.677Z,16.80
2018-04-10T20:03:16.878Z,18.93
2018-04-10T20:05:46.166Z,18.10
2018-04-10T20:08:15.822Z,18.47
2018-04-10T20:10:45.028Z,18.37
2018-04-10T20:13:14.428Z,17.97
2018-04-10T20:15:43.425Z,19.00
2018-04-10T20:18:12.519Z,19.83
2018-04-10T20:20:42.643Z,18.63
2018-04-10T20:23:12.786Z,18.90
2018-04-10T20:25:42.063Z,19.50
2018-04-10T20:28:11.157Z,19.83
2018-04-10T20:30:40.285Z,19.70
2018-04-10T20:33:09.390Z,20.20
2018-04-10T20:35:39.267Z,20.57
2018-04-10T20:38:08.779Z,20.87
2018-04-10T20:40:38.785Z,20.73
2018-04-10T20:43:08.208Z,20.87
2018-04-10T20:45:37.198Z,19.83
2018-04-10T20:48:06.655Z,19.43
2018-04-10T20:50:35.825Z,19.47
2018-04-10T20:53:06.015Z,19.40
2018-04-10T20:55:35.771Z,19.63
2018-04-10T20:58:05.959Z,19.40
2018-04-10T21:00:35.851Z,18.73
2018-04-10T21:03:05.407Z,19.00
2018-04-10T21:05:34.679Z,18.90
2018-04-10T21:08:04.826Z,18.17
2018-04-10T21:10:33.927Z,17.03
2018-04-10T21:13:03.202Z,18.50
2018-04-10T21:15:32.499Z,18.00
2018-04-10T21:18:02.645Z,19.67
2018-04-10T21:20:31.830Z,18.13
2018-04-10T21:23:01.063Z,18.30
2018-04-10T21:25:30.214Z,19.83
2018-04-10T21:28:00.242Z,19.20
2018-04-10T21:30:29.907Z,19.00
2018-04-10T21:32:59.018Z,16.77
2018-04-10T21:35:28.447Z,18.07
2018-04-10T21:37:57.958Z,17.87
2018-04-10T21:40:26.955Z,19.20
2018-04-10T21:43:02.175Z,19.63
2018-04-10T21:45:31.296Z,18.33
2018-04-10T21:48:01.301Z,17.70
2018-04-10T21:50:30.430Z,18.97
2018-04-10T21:52:59.606Z,18.77
2018-04-10T21:55:28.702Z,17.97
2018-04-10T21:57:58.865Z,17.37
2018-04-10T22:00:28.366Z,17.77
2018-04-10T22:02:57.457Z,17.53
2018-04-10T22:05:27.438Z,18.47
2018-04-10T22:07:57.118Z,17.70
2018-04-10T22:10:26.246Z,17.67
2018-04-10T22:12:55.411Z,17.20
2018-04-10T22:15:24.810Z,16.50
2018-04-10T22:17:54.221Z,17.73
2018-04-10T22:20:23.253Z,18.27
2018-04-10T22:22:52.585Z,17.23
2018-04-10T22:25:21.690Z,17.20
2018-04-10T22:27:51.778Z,17.70
2018-04-10T22:30:20.969Z,17.97
2018-04-10T22:32:50.202Z,18.80
2018-04-10T22:35:19.231Z,16.07
2018-04-10T22:37:48.434Z,16.47
2018-04-10T22:40:17.271Z,18.13
2018-04-10T22:42:46.642Z,19.07
2018-04-10T22:45:16.147Z,19.83
2018-04-10T22:47:46.111Z,18.30
2018-04-10T22:50:15.871Z,18.27
2018-04-10T22:52:45.968Z,17.13
2018-04-10T22:55:15.214Z,17.40
2018-04-10T22:57:45.111Z,18.10
2018-04-10T23:00:15.367Z,19.50
2018-04-10T23:02:44.499Z,18.60
2018-04-10T23:05:14.991Z,16.97
2018-04-10T23:07:45.110Z,18.53
2018-04-10T23:10:14.503Z,18.97
2018-04-10T23:12:44.821Z,18.80
2018-04-10T23:15:15.047Z,17.90
2018-04-10T23:17:44.667Z,16.23
2018-04-10T23:20:13.699Z,18.13
2018-04-10T23:22:43.894Z,18.87
2018-04-10T23:25:12.982Z,19.60
2018-04-10T23:27:42.322Z,18.10
2018-04-10T23:30:11.374Z,19.37
2018-04-10T23:32:40.663Z,17.87
2018-04-10T23:35:10.050Z,20.20
2018-04-10T23:37:39.224Z,20.20
2018-04-10T23:40:09.154Z,20.93
2018-04-10T23:42:39.378Z,18.07
2018-04-10T23:45:09.571Z,17.87
2018-04-10T23:47:38.870Z,17.97
2018-04-10T23:50:08.877Z,18.80
2018-04-10T23:52:38.812Z,18.10
2018-04-10T23:55:08.159Z,17.27
2018-04-10T23:57:37.526Z,18.23
